Time,TemperatureF,DewpointF,PressureIn,WindDirection,WindDirectionDegrees,WindSpeedMPH,WindSpeedGustMPH,Humidity,HourlyPrecipIn,Conditions,Clouds,dailyrainin,SoftwareType,DateUTC
2013-09-17 00:12:00,63.0,54.0,29.93,SE,138,0.0,-999.0,73,-99.99,,,-99.99,,2013-09-17 06:12:00,
2013-09-17 00:22:00,64.0,55.0,29.92,SE,138,0.0,-999.0,72,-99.99,,,-99.99,,2013-09-17 06:22:00,
2013-09-17 00:42:00,64.0,55.0,29.92,SE,138,0.0,-999.0,72,-99.99,,,-99.99,,2013-09-17 06:42:00,
2013-09-17 00:52:00,63.0,54.0,29.91,SE,138,0.0,-999.0,73,-99.99,,,-99.99,,2013-09-17 06:52:00,
2013-09-17 01:11:00,63.0,55.0,29.91,SE,138,0.0,-999.0,75,-99.99,,,-99.99,,2013-09-17 07:11:00,
2013-09-17 01:23:00,60.0,53.0,29.91,NW,308,0.0,-999.0,78,-99.99,,,-99.99,,2013-09-17 07:23:00,
2013-09-17 01:52:00,57.0,53.0,29.91,North,360,0.0,-999.0,86,-99.99,,,-99.99,,2013-09-17 07:52:00,
2013-09-17 02:12:00,56.0,52.0,29.91,North,11,0.0,-999.0,87,-99.99,,,-99.99,,2013-09-17 08:12:00,
2013-09-17 02:21:00,56.0,52.0,29.91,NNE,17,1.0,-999.0,88,-99.99,,,-99.99,,2013-09-17 08:21:00,
2013-09-17 02:52:00,56.0,52.0,29.90,North,360,0.0,-999.0,86,-99.99,,,-99.99,,2013-09-17 08:52:00,
2013-09-17 03:11:00,56.0,51.0,29.90,North,5,2.0,-999.0,83,-99.99,,,-99.99,,2013-09-17 09:11:00,
2013-09-17 03:22:00,57.0,51.0,29.89,NW,325,1.0,-999.0,79,-99.99,,,-99.99,,2013-09-17 09:22:00,
2013-09-17 03:42:00,57.0,51.0,29.89,NNW,330,1.0,-999.0,79,-99.99,,,-99.99,,2013-09-17 09:42:00,
2013-09-17 03:53:00,57.0,50.0,29.90,North,5,1.0,-999.0,78,-99.99,,,-99.99,,2013-09-17 09:53:00,
2013-09-17 04:12:00,56.0,49.0,29.90,NW,321,2.0,-999.0,78,-99.99,,,-99.99,,2013-09-17 10:12:00,
2013-09-17 04:23:00,56.0,49.0,29.89,NW,322,0.0,-999.0,78,-99.99,,,-99.99,,2013-09-17 10:23:00,
2013-09-17 04:42:00,55.0,49.0,29.89,North,355,1.0,-999.0,80,-99.99,,,-99.99,,2013-09-17 10:42:00,
2013-09-17 04:53:00,54.0,49.0,29.89,North,360,1.0,-999.0,82,-99.99,,,-99.99,,2013-09-17 10:53:00,
2013-09-17 05:11:00,53.0,48.0,29.89,North,360,0.0,-999.0,84,-99.99,,,-99.99,,2013-09-17 11:11:00,
2013-09-17 05:22:00,52.0,48.0,29.89,North,360,0.0,-999.0,85,-99.99,,,-99.99,,2013-09-17 11:22:00,
2013-09-17 05:52:00,53.0,48.0,29.89,North,355,0.0,-999.0,83,-99.99,,,-99.99,,2013-09-17 11:52:00,
2013-09-17 06:12:00,53.0,48.0,29.89,NW,323,0.0,-999.0,82,-99.99,,,-99.99,,2013-09-17 12:12:00,
2013-09-17 06:21:00,53.0,47.0,29.89,NNW,329,0.0,-999.0,81,-99.99,,,-99.99,,2013-09-17 12:21:00,
2013-09-17 06:42:00,53.0,48.0,29.89,North,360,1.0,-999.0,82,-99.99,,,-99.99,,2013-09-17 12:42:00,
2013-09-17 06:52:00,54.0,49.0,29.89,North,360,0.0,-999.0,82,-99.99,,,-99.99,,2013-09-17 12:52:00,
2013-09-17 07:11:00,53.0,47.0,29.88,North,11,2.0,-999.0,81,-99.99,,,-99.99,,2013-09-17 13:11:00,
2013-09-17 07:22:00,52.0,48.0,29.88,NNE,28,0.0,-999.0,85,-99.99,,,-99.99,,2013-09-17 13:22:00,
2013-09-17 07:52:00,52.0,48.0,29.89,NNW,336,2.0,-999.0,86,-99.99,,,-99.99,,2013-09-17 13:52:00,
2013-09-17 08:11:00,52.0,49.0,29.89,North,5,2.0,-999.0,88,-99.99,,,-99.99,,2013-09-17 14:11:00,
2013-09-17 08:21:00,53.0,50.0,29.88,North,11,3.0,-999.0,88,-99.99,,,-99.99,,2013-09-17 14:21:00,
2013-09-17 08:52:00,55.0,51.0,29.88,North,9,2.0,-999.0,87,-99.99,,,-99.99,,2013-09-17 14:52:00,
2013-09-17 09:11:00,56.0,52.0,29.88,NNW,339,0.0,-999.0,87,-99.99,,,-99.99,,2013-09-17 15:11:00,
2013-09-17 09:22:00,58.0,54.0,29.88,NNW,342,3.0,-999.0,86,-99.99,,,-99.99,,2013-09-17 15:22:00,
2013-09-17 09:44:00,59.0,54.0,29.88,North,360,0.0,-999.0,85,-99.99,,,-99.99,,2013-09-17 15:44:00,
2013-09-17 09:53:00,60.0,54.0,29.88,North,355,0.0,-999.0,82,-99.99,,,-99.99,,2013-09-17 15:53:00,
2013-09-17 10:12:00,61.0,55.0,29.87,NNE,12,1.0,-999.0,80,-99.99,,,-99.99,,2013-09-17 16:12:00,
2013-09-17 10:23:00,63.0,55.0,29.87,WNW,297,0.0,-999.0,76,-99.99,,,-99.99,,2013-09-17 16:23:00,
2013-09-17 10:53:00,67.0,56.0,29.86,WNW,292,1.0,-999.0,69,-99.99,,,-99.99,,2013-09-17 16:53:00,
2013-09-17 11:12:00,68.0,56.0,29.86,WSW,241,0.0,-999.0,65,-99.99,,,-99.99,,2013-09-17 17:12:00,
2013-09-17 11:23:00,68.0,55.0,29.85,SW,236,0.0,-999.0,63,-99.99,,,-99.99,,2013-09-17 17:23:00,
2013-09-17 11:42:00,66.0,53.0,29.84,SW,228,0.0,-999.0,63,-99.99,,,-99.99,,2013-09-17 17:42:00,
2013-09-17 11:53:00,67.0,54.0,29.83,South,173,2.0,-999.0,62,-99.99,,,-99.99,,2013-09-17 17:53:00,
2013-09-17 12:12:00,67.0,55.0,29.81,SSE,154,2.0,-999.0,65,-99.99,,,-99.99,,2013-09-17 18:12:00,
2013-09-17 12:21:00,72.0,51.0,29.80,SSE,166,8.0,-999.0,48,-99.99,,,-99.99,,2013-09-17 18:21:00,
2013-09-17 12:42:00,73.0,50.0,29.79,SE,144,7.0,-999.0,44,-99.99,,,-99.99,,2013-09-17 18:42:00,
2013-09-17 12:52:00,74.0,51.0,29.78,SSE,159,5.0,-999.0,44,-99.99,,,-99.99,,2013-09-17 18:52:00,
2013-09-17 13:11:00,76.0,52.0,29.77,SSE,163,7.0,-999.0,43,-99.99,,,-99.99,,2013-09-17 19:11:00,
2013-09-17 13:21:00,76.0,49.0,29.76,SSW,193,11.0,-999.0,38,-99.99,,,-99.99,,2013-09-17 19:21:00,
2013-09-17 13:52:00,78.0,49.0,29.72,SSE,167,12.0,-999.0,36,-99.99,,,-99.99,,2013-09-17 19:52:00,
2013-09-17 14:11:00,78.0,49.0,29.71,South,181,13.0,-999.0,36,-99.99,,,-99.99,,2013-09-17 20:11:00,
2013-09-17 14:22:00,78.0,47.0,29.70,South,173,15.0,-999.0,34,-99.99,,,-99.99,,2013-09-17 20:22:00,
2013-09-17 14:52:00,75.0,49.0,29.70,SSE,159,14.0,-999.0,40,-99.99,,,-99.99,,2013-09-17 20:52:00,
2013-09-17 15:12:00,75.0,50.0,29.69,South,171,13.0,-999.0,41,-99.99,,,-99.99,,2013-09-17 21:12:00,
2013-09-17 15:22:00,74.0,50.0,29.69,SSE,154,11.0,-999.0,43,-99.99,,,-99.99,,2013-09-17 21:22:00,
2013-09-17 15:54:00,73.0,38.0,29.70,South,188,19.0,-999.0,28,-99.99,,,-99.99,,2013-09-17 21:54:00,
2013-09-17 16:13:00,70.0,43.0,29.70,South,169,11.0,-999.0,38,-99.99,,,-99.99,,2013-09-17 22:13:00,
2013-09-17 16:24:00,70.0,46.0,29.69,South,170,5.0,-999.0,42,-99.99,,,-99.99,,2013-09-17 22:24:00,
2013-09-17 16:53:00,70.0,48.0,29.68,SSE,167,3.0,-999.0,46,-99.99,,,-99.99,,2013-09-17 22:53:00,
2013-09-17 17:21:00,69.0,51.0,29.66,SE,142,0.0,-999.0,53,-99.99,,,-99.99,,2013-09-17 23:21:00,
2013-09-17 17:52:00,71.0,49.0,29.65,SSE,168,1.0,-999.0,46,-99.99,,,-99.99,,2013-09-17 23:52:00,
2013-09-17 18:11:00,71.0,48.0,29.65,SE,144,0.0,-999.0,44,-99.99,,,-99.99,,2013-09-18 00:11:00,
2013-09-17 18:22:00,71.0,47.0,29.65,North,355,0.0,-999.0,43,-99.99,,,-99.99,,2013-09-18 00:22:00,
2013-09-17 18:42:00,68.0,48.0,29.66,North,355,1.0,-999.0,49,-99.99,,,-99.99,,2013-09-18 00:42:00,
2013-09-17 18:52:00,67.0,48.0,29.66,NNW,338,3.0,-999.0,51,-99.99,,,-99.99,,2013-09-18 00:52:00,
2013-09-17 19:11:00,65.0,48.0,29.68,NW,323,2.0,-999.0,55,-99.99,,,-99.99,,2013-09-18 01:11:00,
2013-09-17 19:21:00,66.0,46.0,29.69,West,280,16.0,-999.0,48,-99.99,,,-99.99,,2013-09-18 01:21:00,
2013-09-17 19:42:00,64.0,46.0,29.67,WNW,288,5.0,-999.0,52,-99.99,,,-99.99,,2013-09-18 01:42:00,
2013-09-17 19:52:00,63.0,46.0,29.68,ESE,103,0.0,-999.0,54,-99.99,,,-99.99,,2013-09-18 01:52:00,
2013-09-17 20:11:00,62.0,47.0,29.69,NE,40,0.0,-999.0,58,-99.99,,,-99.99,,2013-09-18 02:11:00,
2013-09-17 20:21:00,61.0,48.0,29.69,NNE,16,0.0,-999.0,62,-99.99,,,-99.99,,2013-09-18 02:21:00,
2013-09-17 20:42:00,60.0,48.0,29.68,NE,34,0.0,-999.0,65,-99.99,,,-99.99,,2013-09-18 02:42:00,
2013-09-17 20:52:00,60.0,49.0,29.67,NE,42,1.0,-999.0,66,-99.99,,,-99.99,,2013-09-18 02:52:00,
2013-09-17 21:11:00,60.0,47.0,29.67,NE,40,3.0,-999.0,63,-99.99,,,-99.99,,2013-09-18 03:11:00,
2013-09-17 21:22:00,61.0,47.0,29.67,NE,49,5.0,-999.0,60,-99.99,,,-99.99,,2013-09-18 03:22:00,
2013-09-17 21:44:00,63.0,47.0,29.69,ESE,104,4.0,-999.0,56,-99.99,,,-99.99,,2013-09-18 03:44:00,
2013-09-17 21:54:00,60.0,49.0,29.68,NNE,18,4.0,-999.0,66,-99.99,,,-99.99,,2013-09-18 03:54:00,
2013-09-17 22:14:00,62.0,50.0,29.65,ENE,65,6.0,-999.0,64,-99.99,,,-99.99,,2013-09-18 04:14:00,
2013-09-17 22:24:00,60.0,51.0,29.66,North,11,1.0,-999.0,73,-99.99,,,-99.99,,2013-09-18 04:24:00,
2013-09-17 22:43:00,58.0,52.0,29.67,ENE,64,3.0,-999.0,79,-99.99,,,-99.99,,2013-09-18 04:43:00,
2013-09-17 22:54:00,58.0,52.0,29.66,ENE,63,3.0,-999.0,80,-99.99,,,-99.99,,2013-09-18 04:54:00,
2013-09-17 23:12:00,55.0,49.0,29.71,WNW,303,24.0,-999.0,80,-99.99,,,-99.99,,2013-09-18 05:12:00,
2013-09-17 23:23:00,53.0,47.0,29.70,NW,326,18.0,-999.0,80,-99.99,,,-99.99,,2013-09-18 05:23:00,
2013-09-17 23:42:00,53.0,47.0,29.73,NW,312,15.0,-999.0,81,-99.99,,,-99.99,,2013-09-18 05:42:00,
2013-09-17 23:53:00,52.0,48.0,29.75,NW,313,14.0,-999.0,86,-99.99,,,-99.99,,2013-09-18 05:53:00,